sensor_id;sensor_type;location;lat;lon;timestamp;P1;durP1;ratioP1;P2;durP2;ratioP2
6513;SDS011;3290;47.716;9.070;2023-05-07T00:00:55;5.40;;;3.77;;
6513;SDS011;3290;47.716;9.070;2023-05-07T00:03:21;11.50;;;3.60;;
6513;SDS011;3290;47.716;9.070;2023-05-07T00:05:47;4.63;;;3.33;;
6513;SDS011;3290;47.716;9.070;2023-05-07T00:08:13;5.33;;;3.50;;
6513;SDS011;3290;47.716;9.070;2023-05-07T00:10:38;7.17;;;3.23;;
6513;SDS011;3290;47.716;9.070;2023-05-07T00:13:04;3.67;;;3.27;;
6513;SDS011;3290;47.716;9.070;2023-05-07T00:15:29;4.20;;;3.50;;
6513;SDS011;3290;47.716;9.070;2023-05-07T00:17:55;5.60;;;3.80;;
6513;SDS011;3290;47.716;9.070;2023-05-07T00:20:20;4.53;;;3.73;;
6513;SDS011;3290;47.716;9.070;2023-05-07T00:22:46;9.93;;;4.20;;
6513;SDS011;3290;47.716;9.070;2023-05-07T00:25:11;8.23;;;3.53;;
6513;SDS011;3290;47.716;9.070;2023-05-07T00:27:36;6.13;;;3.70;;
6513;SDS011;3290;47.716;9.070;2023-05-07T00:30:02;5.40;;;3.03;;
6513;SDS011;3290;47.716;9.070;2023-05-07T00:32:27;8.23;;;3.60;;
6513;SDS011;3290;47.716;9.070;2023-05-07T00:34:53;4.50;;;3.10;;
6513;SDS011;3290;47.716;9.070;2023-05-07T00:37:18;4.13;;;3.60;;
6513;SDS011;3290;47.716;9.070;2023-05-07T00:39:43;8.17;;;3.47;;
6513;SDS011;3290;47.716;9.070;2023-05-07T00:42:09;5.73;;;3.73;;
6513;SDS011;3290;47.716;9.070;2023-05-07T00:44:34;3.57;;;3.27;;
6513;SDS011;3290;47.716;9.070;2023-05-07T00:47:01;3.67;;;2.93;;
6513;SDS011;3290;47.716;9.070;2023-05-07T00:49:35;6.20;;;3.60;;
6513;SDS011;3290;47.716;9.070;2023-05-07T00:52:03;8.90;;;4.10;;
6513;SDS011;3290;47.716;9.070;2023-05-07T00:54:31;4.43;;;3.47;;
6513;SDS011;3290;47.716;9.070;2023-05-07T00:56:58;6.90;;;3.40;;
6513;SDS011;3290;47.716;9.070;2023-05-07T00:59:24;5.90;;;3.60;;
6513;SDS011;3290;47.716;9.070;2023-05-07T01:01:49;7.40;;;3.97;;
6513;SDS011;3290;47.716;9.070;2023-05-07T01:04:15;7.73;;;4.00;;
6513;SDS011;3290;47.716;9.070;2023-05-07T01:06:40;16.90;;;4.07;;
6513;SDS011;3290;47.716;9.070;2023-05-07T01:09:06;8.10;;;3.50;;
6513;SDS011;3290;47.716;9.070;2023-05-07T01:11:32;4.17;;;3.47;;
6513;SDS011;3290;47.716;9.070;2023-05-07T01:13:58;4.00;;;3.27;;
6513;SDS011;3290;47.716;9.070;2023-05-07T01:16:24;5.13;;;4.23;;
6513;SDS011;3290;47.716;9.070;2023-05-07T01:18:50;9.13;;;3.83;;
6513;SDS011;3290;47.716;9.070;2023-05-07T01:21:15;5.80;;;3.90;;
6513;SDS011;3290;47.716;9.070;2023-05-07T01:23:42;9.10;;;3.33;;
6513;SDS011;3290;47.716;9.070;2023-05-07T01:26:10;3.67;;;3.37;;
6513;SDS011;3290;47.716;9.070;2023-05-07T01:28:35;4.00;;;3.30;;
6513;SDS011;3290;47.716;9.070;2023-05-07T01:31:01;7.73;;;4.37;;
6513;SDS011;3290;47.716;9.070;2023-05-07T01:33:29;5.40;;;3.40;;
6513;SDS011;3290;47.716;9.070;2023-05-07T01:35:58;4.40;;;3.20;;
6513;SDS011;3290;47.716;9.070;2023-05-07T01:38:27;8.00;;;4.10;;
6513;SDS011;3290;47.716;9.070;2023-05-07T01:40:53;6.20;;;3.37;;
6513;SDS011;3290;47.716;9.070;2023-05-07T01:43:19;4.07;;;3.60;;
6513;SDS011;3290;47.716;9.070;2023-05-07T01:45:44;7.40;;;4.17;;
6513;SDS011;3290;47.716;9.070;2023-05-07T01:48:11;6.30;;;3.77;;
6513;SDS011;3290;47.716;9.070;2023-05-07T01:50:39;6.43;;;3.37;;
6513;SDS011;3290;47.716;9.070;2023-05-07T01:53:04;4.43;;;4.03;;
6513;SDS011;3290;47.716;9.070;2023-05-07T01:55:30;8.43;;;3.60;;
6513;SDS011;3290;47.716;9.070;2023-05-07T01:57:55;3.90;;;3.53;;
6513;SDS011;3290;47.716;9.070;2023-05-07T02:00:21;4.30;;;3.83;;
6513;SDS011;3290;47.716;9.070;2023-05-07T02:02:46;4.37;;;3.80;;
6513;SDS011;3290;47.716;9.070;2023-05-07T02:05:12;7.30;;;4.20;;
6513;SDS011;3290;47.716;9.070;2023-05-07T02:07:37;7.40;;;4.13;;
6513;SDS011;3290;47.716;9.070;2023-05-07T02:10:02;5.60;;;4.00;;
6513;SDS011;3290;47.716;9.070;2023-05-07T02:12:28;5.87;;;4.23;;
6513;SDS011;3290;47.716;9.070;2023-05-07T02:14:53;6.27;;;4.13;;
6513;SDS011;3290;47.716;9.070;2023-05-07T02:17:19;5.53;;;3.73;;
6513;SDS011;3290;47.716;9.070;2023-05-07T02:19:45;5.57;;;4.47;;
6513;SDS011;3290;47.716;9.070;2023-05-07T02:22:10;5.77;;;3.60;;
6513;SDS011;3290;47.716;9.070;2023-05-07T02:24:35;4.53;;;3.47;;
6513;SDS011;3290;47.716;9.070;2023-05-07T02:27:01;4.30;;;3.63;;
6513;SDS011;3290;47.716;9.070;2023-05-07T02:29:27;4.17;;;3.70;;
6513;SDS011;3290;47.716;9.070;2023-05-07T02:31:52;6.50;;;4.23;;
6513;SDS011;3290;47.716;9.070;2023-05-07T02:34:18;3.70;;;3.40;;
6513;SDS011;3290;47.716;9.070;2023-05-07T02:36:44;4.30;;;3.67;;
6513;SDS011;3290;47.716;9.070;2023-05-07T02:39:10;6.57;;;3.90;;
6513;SDS011;3290;47.716;9.070;2023-05-07T02:41:36;4.00;;;3.47;;
6513;SDS011;3290;47.716;9.070;2023-05-07T02:44:02;4.87;;;4.07;;
6513;SDS011;3290;47.716;9.070;2023-05-07T02:46:27;5.80;;;3.63;;
6513;SDS011;3290;47.716;9.070;2023-05-07T02:48:52;6.77;;;3.77;;
6513;SDS011;3290;47.716;9.070;2023-05-07T02:51:19;4.40;;;3.50;;
6513;SDS011;3290;47.716;9.070;2023-05-07T02:53:46;11.73;;;4.10;;
6513;SDS011;3290;47.716;9.070;2023-05-07T02:56:11;6.67;;;3.70;;
6513;SDS011;3290;47.716;9.070;2023-05-07T02:58:37;8.30;;;4.03;;
6513;SDS011;3290;47.716;9.070;2023-05-07T03:01:04;4.27;;;3.77;;
6513;SDS011;3290;47.716;9.070;2023-05-07T03:03:30;8.60;;;4.10;;
6513;SDS011;3290;47.716;9.070;2023-05-07T03:05:55;11.10;;;3.93;;
6513;SDS011;3290;47.716;9.070;2023-05-07T03:08:21;10.00;;;4.20;;
6513;SDS011;3290;47.716;9.070;2023-05-07T03:10:46;4.23;;;3.70;;
6513;SDS011;3290;47.716;9.070;2023-05-07T03:13:12;7.80;;;4.27;;
6513;SDS011;3290;47.716;9.070;2023-05-07T03:15:37;4.87;;;3.93;;
6513;SDS011;3290;47.716;9.070;2023-05-07T03:18:02;4.20;;;3.80;;
6513;SDS011;3290;47.716;9.070;2023-05-07T03:20:28;4.00;;;3.50;;
6513;SDS011;3290;47.716;9.070;2023-05-07T03:22:53;7.30;;;3.77;;
6513;SDS011;3290;47.716;9.070;2023-05-07T03:25:19;4.90;;;3.90;;
6513;SDS011;3290;47.716;9.070;2023-05-07T03:27:44;4.50;;;4.10;;
6513;SDS011;3290;47.716;9.070;2023-05-07T03:30:09;12.40;;;3.60;;
6513;SDS011;3290;47.716;9.070;2023-05-07T03:32:36;4.03;;;3.53;;
6513;SDS011;3290;47.716;9.070;2023-05-07T03:35:01;6.53;;;4.30;;
6513;SDS011;3290;47.716;9.070;2023-05-07T03:37:27;4.43;;;3.73;;
6513;SDS011;3290;47.716;9.070;2023-05-07T03:39:52;6.43;;;4.60;;
6513;SDS011;3290;47.716;9.070;2023-05-07T03:42:18;6.60;;;5.43;;
6513;SDS011;3290;47.716;9.070;2023-05-07T03:44:43;4.83;;;4.30;;
6513;SDS011;3290;47.716;9.070;2023-05-07T03:47:09;10.80;;;3.80;;
6513;SDS011;3290;47.716;9.070;2023-05-07T03:49:35;4.57;;;4.17;;
6513;SDS011;3290;47.716;9.070;2023-05-07T03:52:03;5.27;;;4.53;;
6513;SDS011;3290;47.716;9.070;2023-05-07T03:54:29;8.60;;;3.60;;
6513;SDS011;3290;47.716;9.070;2023-05-07T03:56:55;6.73;;;4.27;;
6513;SDS011;3290;47.716;9.070;2023-05-07T03:59:21;3.87;;;3.40;;
6513;SDS011;3290;47.716;9.070;2023-05-07T04:01:47;9.37;;;4.43;;
6513;SDS011;3290;47.716;9.070;2023-05-07T04:04:13;8.47;;;4.00;;
6513;SDS011;3290;47.716;9.070;2023-05-07T04:06:39;4.60;;;3.83;;
6513;SDS011;3290;47.716;9.070;2023-05-07T04:09:04;5.83;;;4.97;;
6513;SDS011;3290;47.716;9.070;2023-05-07T04:11:30;6.23;;;4.17;;
6513;SDS011;3290;47.716;9.070;2023-05-07T04:13:55;5.23;;;4.33;;
6513;SDS011;3290;47.716;9.070;2023-05-07T04:16:20;5.87;;;4.60;;
6513;SDS011;3290;47.716;9.070;2023-05-07T04:18:46;7.13;;;4.70;;
6513;SDS011;3290;47.716;9.070;2023-05-07T04:21:14;9.10;;;5.63;;
6513;SDS011;3290;47.716;9.070;2023-05-07T04:23:41;7.40;;;5.10;;
6513;SDS011;3290;47.716;9.070;2023-05-07T04:26:06;6.73;;;5.03;;
6513;SDS011;3290;47.716;9.070;2023-05-07T04:28:32;8.37;;;4.50;;
6513;SDS011;3290;47.716;9.070;2023-05-07T04:30:57;4.50;;;3.90;;
6513;SDS011;3290;47.716;9.070;2023-05-07T04:33:23;14.07;;;4.97;;
6513;SDS011;3290;47.716;9.070;2023-05-07T04:35:48;7.83;;;4.83;;
6513;SDS011;3290;47.716;9.070;2023-05-07T04:38:14;7.27;;;5.00;;
6513;SDS011;3290;47.716;9.070;2023-05-07T04:40:39;4.67;;;4.10;;
6513;SDS011;3290;47.716;9.070;2023-05-07T04:43:05;5.33;;;4.43;;
6513;SDS011;3290;47.716;9.070;2023-05-07T04:45:30;6.17;;;4.40;;
6513;SDS011;3290;47.716;9.070;2023-05-07T04:47:55;9.33;;;4.90;;
6513;SDS011;3290;47.716;9.070;2023-05-07T04:50:21;8.80;;;3.80;;
6513;SDS011;3290;47.716;9.070;2023-05-07T04:52:49;4.87;;;4.20;;
6513;SDS011;3290;47.716;9.070;2023-05-07T04:55:15;6.30;;;4.63;;
6513;SDS011;3290;47.716;9.070;2023-05-07T04:57:40;7.13;;;4.80;;
6513;SDS011;3290;47.716;9.070;2023-05-07T05:00:06;6.00;;;4.33;;
6513;SDS011;3290;47.716;9.070;2023-05-07T05:02:33;16.13;;;4.57;;
6513;SDS011;3290;47.716;9.070;2023-05-07T05:05:00;6.40;;;4.50;;
6513;SDS011;3290;47.716;9.070;2023-05-07T05:07:27;8.13;;;3.90;;
6513;SDS011;3290;47.716;9.070;2023-05-07T05:09:52;6.93;;;4.30;;
6513;SDS011;3290;47.716;9.070;2023-05-07T05:12:17;4.53;;;4.13;;
6513;SDS011;3290;47.716;9.070;2023-05-07T05:14:46;4.80;;;4.30;;
6513;SDS011;3290;47.716;9.070;2023-05-07T05:17:12;10.73;;;4.10;;
6513;SDS011;3290;47.716;9.070;2023-05-07T05:19:37;5.73;;;4.17;;
6513;SDS011;3290;47.716;9.070;2023-05-07T05:22:02;4.30;;;3.90;;
6513;SDS011;3290;47.716;9.070;2023-05-07T05:24:29;6.43;;;4.30;;
6513;SDS011;3290;47.716;9.070;2023-05-07T05:26:55;5.63;;;4.67;;
6513;SDS011;3290;47.716;9.070;2023-05-07T05:29:20;10.87;;;5.80;;
6513;SDS011;3290;47.716;9.070;2023-05-07T05:31:45;6.53;;;4.97;;
6513;SDS011;3290;47.716;9.070;2023-05-07T05:34:11;8.27;;;5.83;;
6513;SDS011;3290;47.716;9.070;2023-05-07T05:36:36;7.73;;;5.33;;
6513;SDS011;3290;47.716;9.070;2023-05-07T05:39:01;5.23;;;4.73;;
6513;SDS011;3290;47.716;9.070;2023-05-07T05:41:27;13.50;;;6.07;;
6513;SDS011;3290;47.716;9.070;2023-05-07T05:43:52;6.13;;;4.80;;
6513;SDS011;3290;47.716;9.070;2023-05-07T05:46:17;6.80;;;5.10;;
6513;SDS011;3290;47.716;9.070;2023-05-07T05:48:43;10.17;;;5.43;;
6513;SDS011;3290;47.716;9.070;2023-05-07T05:51:11;9.10;;;5.27;;
6513;SDS011;3290;47.716;9.070;2023-05-07T05:53:36;5.67;;;4.90;;
6513;SDS011;3290;47.716;9.070;2023-05-07T05:56:02;5.80;;;5.10;;
6513;SDS011;3290;47.716;9.070;2023-05-07T05:58:27;8.47;;;5.30;;
6513;SDS011;3290;47.716;9.070;2023-05-07T06:00:53;9.80;;;6.13;;
6513;SDS011;3290;47.716;9.070;2023-05-07T06:03:21;7.93;;;5.23;;
6513;SDS011;3290;47.716;9.070;2023-05-07T06:05:47;5.80;;;5.30;;
6513;SDS011;3290;47.716;9.070;2023-05-07T06:08:12;7.10;;;5.60;;
6513;SDS011;3290;47.716;9.070;2023-05-07T06:10:38;9.70;;;5.80;;
6513;SDS011;3290;47.716;9.070;2023-05-07T06:13:03;8.93;;;5.37;;
6513;SDS011;3290;47.716;9.070;2023-05-07T06:15:29;5.87;;;5.10;;
6513;SDS011;3290;47.716;9.070;2023-05-07T06:17:54;7.70;;;5.37;;
6513;SDS011;3290;47.716;9.070;2023-05-07T06:20:22;9.03;;;5.70;;
6513;SDS011;3290;47.716;9.070;2023-05-07T06:22:47;5.97;;;5.37;;
6513;SDS011;3290;47.716;9.070;2023-05-07T06:25:13;9.37;;;5.20;;
6513;SDS011;3290;47.716;9.070;2023-05-07T06:27:38;13.50;;;5.37;;
6513;SDS011;3290;47.716;9.070;2023-05-07T06:30:04;7.07;;;6.37;;
6513;SDS011;3290;47.716;9.070;2023-05-07T06:32:31;6.53;;;5.27;;
6513;SDS011;3290;47.716;9.070;2023-05-07T06:34:56;5.33;;;4.83;;
6513;SDS011;3290;47.716;9.070;2023-05-07T06:37:22;8.10;;;5.70;;
6513;SDS011;3290;47.716;9.070;2023-05-07T06:39:47;11.33;;;5.50;;
6513;SDS011;3290;47.716;9.070;2023-05-07T06:42:12;5.87;;;5.23;;
6513;SDS011;3290;47.716;9.070;2023-05-07T06:44:38;10.50;;;5.90;;
6513;SDS011;3290;47.716;9.070;2023-05-07T06:47:03;6.60;;;5.60;;
6513;SDS011;3290;47.716;9.070;2023-05-07T06:49:30;6.90;;;5.20;;
6513;SDS011;3290;47.716;9.070;2023-05-07T06:51:56;11.33;;;5.80;;
6513;SDS011;3290;47.716;9.070;2023-05-07T06:54:22;6.37;;;5.50;;
6513;SDS011;3290;47.716;9.070;2023-05-07T06:56:47;6.90;;;5.00;;
6513;SDS011;3290;47.716;9.070;2023-05-07T06:59:12;9.03;;;5.80;;
6513;SDS011;3290;47.716;9.070;2023-05-07T07:01:38;13.90;;;6.43;;
6513;SDS011;3290;47.716;9.070;2023-05-07T07:04:04;6.80;;;5.50;;
6513;SDS011;3290;47.716;9.070;2023-05-07T07:06:33;7.57;;;6.37;;
6513;SDS011;3290;47.716;9.070;2023-05-07T07:08:58;7.97;;;6.00;;
6513;SDS011;3290;47.716;9.070;2023-05-07T07:11:24;8.33;;;5.80;;
6513;SDS011;3290;47.716;9.070;2023-05-07T07:13:50;7.73;;;5.80;;
6513;SDS011;3290;47.716;9.070;2023-05-07T07:16:15;9.47;;;5.73;;
6513;SDS011;3290;47.716;9.070;2023-05-07T07:18:41;10.13;;;6.20;;
6513;SDS011;3290;47.716;9.070;2023-05-07T07:21:07;6.00;;;5.33;;
6513;SDS011;3290;47.716;9.070;2023-05-07T07:23:32;10.03;;;5.70;;
6513;SDS011;3290;47.716;9.070;2023-05-07T07:25:58;9.73;;;4.87;;
6513;SDS011;3290;47.716;9.070;2023-05-07T07:28:23;5.77;;;5.17;;
6513;SDS011;3290;47.716;9.070;2023-05-07T07:30:48;8.20;;;5.57;;
6513;SDS011;3290;47.716;9.070;2023-05-07T07:33:14;10.77;;;6.43;;
6513;SDS011;3290;47.716;9.070;2023-05-07T07:35:40;8.97;;;6.77;;
6513;SDS011;3290;47.716;9.070;2023-05-07T07:38:05;7.90;;;5.30;;
6513;SDS011;3290;47.716;9.070;2023-05-07T07:40:30;9.13;;;5.73;;
6513;SDS011;3290;47.716;9.070;2023-05-07T07:42:56;8.07;;;5.77;;
6513;SDS011;3290;47.716;9.070;2023-05-07T07:45:22;8.43;;;5.70;;
6513;SDS011;3290;47.716;9.070;2023-05-07T07:47:47;11.53;;;6.07;;
6513;SDS011;3290;47.716;9.070;2023-05-07T07:50:12;8.43;;;5.83;;
6513;SDS011;3290;47.716;9.070;2023-05-07T07:52:38;9.43;;;6.00;;
6513;SDS011;3290;47.716;9.070;2023-05-07T07:55:03;11.90;;;5.97;;
6513;SDS011;3290;47.716;9.070;2023-05-07T07:57:29;8.77;;;5.70;;
6513;SDS011;3290;47.716;9.070;2023-05-07T07:59:55;8.90;;;5.70;;
6513;SDS011;3290;47.716;9.070;2023-05-07T08:02:20;6.70;;;4.80;;
6513;SDS011;3290;47.716;9.070;2023-05-07T08:04:46;6.07;;;5.17;;
6513;SDS011;3290;47.716;9.070;2023-05-07T08:07:11;7.10;;;5.50;;
6513;SDS011;3290;47.716;9.070;2023-05-07T08:09:39;7.90;;;4.93;;
6513;SDS011;3290;47.716;9.070;2023-05-07T08:12:06;6.03;;;5.40;;
6513;SDS011;3290;47.716;9.070;2023-05-07T08:14:32;15.47;;;5.83;;
6513;SDS011;3290;47.716;9.070;2023-05-07T08:16:58;10.33;;;5.97;;
6513;SDS011;3290;47.716;9.070;2023-05-07T08:19:23;8.57;;;6.10;;
6513;SDS011;3290;47.716;9.070;2023-05-07T08:21:48;10.57;;;6.57;;
6513;SDS011;3290;47.716;9.070;2023-05-07T08:24:14;11.23;;;5.50;;
6513;SDS011;3290;47.716;9.070;2023-05-07T08:26:40;9.10;;;6.30;;
6513;SDS011;3290;47.716;9.070;2023-05-07T08:29:06;6.37;;;5.00;;
6513;SDS011;3290;47.716;9.070;2023-05-07T08:31:31;6.27;;;4.77;;
6513;SDS011;3290;47.716;9.070;2023-05-07T08:33:57;7.60;;;4.90;;
6513;SDS011;3290;47.716;9.070;2023-05-07T08:36:23;10.50;;;5.10;;
6513;SDS011;3290;47.716;9.070;2023-05-07T08:38:49;10.43;;;4.93;;
6513;SDS011;3290;47.716;9.070;2023-05-07T08:41:15;9.43;;;4.97;;
6513;SDS011;3290;47.716;9.070;2023-05-07T08:43:40;5.97;;;3.87;;
6513;SDS011;3290;47.716;9.070;2023-05-07T08:46:06;5.70;;;5.10;;
6513;SDS011;3290;47.716;9.070;2023-05-07T08:48:34;6.00;;;4.60;;
6513;SDS011;3290;47.716;9.070;2023-05-07T08:51:00;4.57;;;3.83;;
6513;SDS011;3290;47.716;9.070;2023-05-07T08:53:26;6.03;;;3.60;;
6513;SDS011;3290;47.716;9.070;2023-05-07T08:55:52;6.10;;;3.93;;
6513;SDS011;3290;47.716;9.070;2023-05-07T08:58:18;4.00;;;3.60;;
6513;SDS011;3290;47.716;9.070;2023-05-07T09:00:43;5.50;;;4.07;;
6513;SDS011;3290;47.716;9.070;2023-05-07T09:03:09;5.03;;;3.90;;
6513;SDS011;3290;47.716;9.070;2023-05-07T09:05:37;8.93;;;3.77;;
6513;SDS011;3290;47.716;9.070;2023-05-07T09:08:04;4.77;;;4.30;;
6513;SDS011;3290;47.716;9.070;2023-05-07T09:10:32;6.43;;;4.27;;
6513;SDS011;3290;47.716;9.070;2023-05-07T09:12:58;5.57;;;4.03;;
6513;SDS011;3290;47.716;9.070;2023-05-07T09:15:24;6.50;;;3.93;;
6513;SDS011;3290;47.716;9.070;2023-05-07T09:17:50;5.17;;;3.93;;
6513;SDS011;3290;47.716;9.070;2023-05-07T09:20:15;5.80;;;4.30;;
6513;SDS011;3290;47.716;9.070;2023-05-07T09:22:41;6.30;;;4.60;;
6513;SDS011;3290;47.716;9.070;2023-05-07T09:25:07;5.53;;;3.50;;
6513;SDS011;3290;47.716;9.070;2023-05-07T09:27:34;4.70;;;4.07;;
6513;SDS011;3290;47.716;9.070;2023-05-07T09:30:02;7.50;;;4.40;;
6513;SDS011;3290;47.716;9.070;2023-05-07T09:32:28;5.10;;;4.27;;
6513;SDS011;3290;47.716;9.070;2023-05-07T09:34:55;6.57;;;4.30;;
6513;SDS011;3290;47.716;9.070;2023-05-07T09:37:21;4.97;;;3.97;;
6513;SDS011;3290;47.716;9.070;2023-05-07T09:39:47;5.30;;;4.20;;
6513;SDS011;3290;47.716;9.070;2023-05-07T09:42:13;8.83;;;3.83;;
6513;SDS011;3290;47.716;9.070;2023-05-07T09:44:45;4.13;;;3.00;;
6513;SDS011;3290;47.716;9.070;2023-05-07T09:47:10;4.40;;;3.10;;
6513;SDS011;3290;47.716;9.070;2023-05-07T09:49:39;3.87;;;3.00;;
6513;SDS011;3290;47.716;9.070;2023-05-07T09:52:07;3.63;;;2.90;;
6513;SDS011;3290;47.716;9.070;2023-05-07T09:54:34;3.27;;;2.60;;
6513;SDS011;3290;47.716;9.070;2023-05-07T09:57:03;6.20;;;3.00;;
6513;SDS011;3290;47.716;9.070;2023-05-07T09:59:31;4.80;;;2.40;;
6513;SDS011;3290;47.716;9.070;2023-05-07T10:01:58;3.20;;;2.90;;
6513;SDS011;3290;47.716;9.070;2023-05-07T10:04:24;5.30;;;3.03;;
6513;SDS011;3290;47.716;9.070;2023-05-07T10:06:51;8.20;;;3.27;;
6513;SDS011;3290;47.716;9.070;2023-05-07T10:09:17;4.50;;;3.07;;
6513;SDS011;3290;47.716;9.070;2023-05-07T10:11:43;4.23;;;3.20;;
6513;SDS011;3290;47.716;9.070;2023-05-07T10:14:09;4.10;;;3.23;;
6513;SDS011;3290;47.716;9.070;2023-05-07T10:16:35;3.30;;;3.00;;
6513;SDS011;3290;47.716;9.070;2023-05-07T10:19:02;3.43;;;2.80;;
6513;SDS011;3290;47.716;9.070;2023-05-07T10:21:33;10.80;;;3.90;;
6513;SDS011;3290;47.716;9.070;2023-05-07T10:24:05;3.13;;;2.83;;
6513;SDS011;3290;47.716;9.070;2023-05-07T10:26:40;6.10;;;3.00;;
6513;SDS011;3290;47.716;9.070;2023-05-07T10:31:59;3.33;;;2.70;;
6513;SDS011;3290;47.716;9.070;2023-05-07T10:34:32;5.07;;;2.73;;
6513;SDS011;3290;47.716;9.070;2023-05-07T10:37:01;3.20;;;2.90;;
6513;SDS011;3290;47.716;9.070;2023-05-07T10:39:28;4.60;;;3.27;;
6513;SDS011;3290;47.716;9.070;2023-05-07T10:41:53;4.63;;;3.00;;
6513;SDS011;3290;47.716;9.070;2023-05-07T10:44:28;6.00;;;2.93;;
6513;SDS011;3290;47.716;9.070;2023-05-07T10:47:13;8.00;;;2.90;;
6513;SDS011;3290;47.716;9.070;2023-05-07T10:52:13;4.80;;;2.70;;
6513;SDS011;3290;47.716;9.070;2023-05-07T10:54:39;5.27;;;3.53;;
6513;SDS011;3290;47.716;9.070;2023-05-07T11:00:02;4.30;;;2.90;;
6513;SDS011;3290;47.716;9.070;2023-05-07T11:05:40;2.70;;;2.50;;
6513;SDS011;3290;47.716;9.070;2023-05-07T11:08:06;4.57;;;2.50;;
6513;SDS011;3290;47.716;9.070;2023-05-07T11:13:17;4.97;;;2.43;;
6513;SDS011;3290;47.716;9.070;2023-05-07T11:15:44;8.80;;;2.80;;
6513;SDS011;3290;47.716;9.070;2023-05-07T11:18:12;3.00;;;2.70;;
6513;SDS011;3290;47.716;9.070;2023-05-07T11:20:50;4.37;;;3.10;;
6513;SDS011;3290;47.716;9.070;2023-05-07T11:26:06;4.63;;;2.67;;
6513;SDS011;3290;47.716;9.070;2023-05-07T11:28:39;2.63;;;2.37;;
6513;SDS011;3290;47.716;9.070;2023-05-07T11:31:05;2.83;;;2.50;;
6513;SDS011;3290;47.716;9.070;2023-05-07T11:33:31;3.73;;;2.50;;
6513;SDS011;3290;47.716;9.070;2023-05-07T11:35:57;6.93;;;2.63;;
6513;SDS011;3290;47.716;9.070;2023-05-07T11:38:24;2.50;;;2.30;;
6513;SDS011;3290;47.716;9.070;2023-05-07T11:40:50;6.53;;;2.40;;
6513;SDS011;3290;47.716;9.070;2023-05-07T11:43:16;3.57;;;2.60;;
6513;SDS011;3290;47.716;9.070;2023-05-07T11:45:42;2.90;;;2.57;;
6513;SDS011;3290;47.716;9.070;2023-05-07T11:48:07;5.27;;;2.50;;
6513;SDS011;3290;47.716;9.070;2023-05-07T11:50:33;4.83;;;2.57;;
6513;SDS011;3290;47.716;9.070;2023-05-07T11:52:58;4.90;;;2.33;;
6513;SDS011;3290;47.716;9.070;2023-05-07T11:55:24;4.40;;;2.90;;
6513;SDS011;3290;47.716;9.070;2023-05-07T11:57:51;4.00;;;2.50;;
6513;SDS011;3290;47.716;9.070;2023-05-07T12:00:16;4.13;;;2.43;;
6513;SDS011;3290;47.716;9.070;2023-05-07T12:02:42;3.80;;;2.37;;
6513;SDS011;3290;47.716;9.070;2023-05-07T12:05:10;3.67;;;2.50;;
6513;SDS011;3290;47.716;9.070;2023-05-07T12:07:35;7.40;;;3.00;;
6513;SDS011;3290;47.716;9.070;2023-05-07T12:10:04;2.27;;;2.17;;
6513;SDS011;3290;47.716;9.070;2023-05-07T12:12:31;2.80;;;2.40;;
6513;SDS011;3290;47.716;9.070;2023-05-07T12:15:03;4.73;;;3.23;;
6513;SDS011;3290;47.716;9.070;2023-05-07T12:17:29;3.30;;;2.80;;
6513;SDS011;3290;47.716;9.070;2023-05-07T12:19:54;5.40;;;2.93;;
6513;SDS011;3290;47.716;9.070;2023-05-07T12:22:20;6.50;;;2.60;;
6513;SDS011;3290;47.716;9.070;2023-05-07T12:24:46;4.53;;;2.40;;
6513;SDS011;3290;47.716;9.070;2023-05-07T12:27:13;2.93;;;2.70;;
6513;SDS011;3290;47.716;9.070;2023-05-07T12:29:39;4.27;;;2.40;;
6513;SDS011;3290;47.716;9.070;2023-05-07T12:32:12;6.60;;;3.47;;
6513;SDS011;3290;47.716;9.070;2023-05-07T12:34:39;3.63;;;2.83;;
6513;SDS011;3290;47.716;9.070;2023-05-07T12:37:04;6.73;;;2.53;;
6513;SDS011;3290;47.716;9.070;2023-05-07T12:39:30;3.30;;;2.30;;
6513;SDS011;3290;47.716;9.070;2023-05-07T12:41:57;3.17;;;2.50;;
6513;SDS011;3290;47.716;9.070;2023-05-07T12:44:33;2.93;;;2.60;;
6513;SDS011;3290;47.716;9.070;2023-05-07T12:47:02;4.00;;;2.60;;
6513;SDS011;3290;47.716;9.070;2023-05-07T12:49:28;7.40;;;3.00;;
6513;SDS011;3290;47.716;9.070;2023-05-07T12:51:54;2.70;;;2.47;;
6513;SDS011;3290;47.716;9.070;2023-05-07T12:54:33;4.03;;;2.90;;
6513;SDS011;3290;47.716;9.070;2023-05-07T12:57:03;6.10;;;2.43;;
6513;SDS011;3290;47.716;9.070;2023-05-07T12:59:31;3.07;;;2.40;;
6513;SDS011;3290;47.716;9.070;2023-05-07T13:01:57;4.57;;;2.90;;
6513;SDS011;3290;47.716;9.070;2023-05-07T13:04:25;3.80;;;2.23;;
6513;SDS011;3290;47.716;9.070;2023-05-07T13:06:51;4.40;;;2.70;;
6513;SDS011;3290;47.716;9.070;2023-05-07T13:09:16;4.30;;;2.83;;
6513;SDS011;3290;47.716;9.070;2023-05-07T13:11:41;2.50;;;2.30;;
6513;SDS011;3290;47.716;9.070;2023-05-07T13:14:07;3.07;;;2.70;;
6513;SDS011;3290;47.716;9.070;2023-05-07T13:16:33;3.47;;;2.73;;
6513;SDS011;3290;47.716;9.070;2023-05-07T13:18:58;2.67;;;2.47;;
6513;SDS011;3290;47.716;9.070;2023-05-07T13:21:23;6.37;;;3.00;;
6513;SDS011;3290;47.716;9.070;2023-05-07T13:23:49;4.93;;;2.80;;
6513;SDS011;3290;47.716;9.070;2023-05-07T13:26:14;3.60;;;2.53;;
6513;SDS011;3290;47.716;9.070;2023-05-07T13:28:40;3.53;;;2.33;;
6513;SDS011;3290;47.716;9.070;2023-05-07T13:31:05;6.30;;;2.80;;
6513;SDS011;3290;47.716;9.070;2023-05-07T13:33:30;7.10;;;2.50;;
6513;SDS011;3290;47.716;9.070;2023-05-07T13:35:56;5.03;;;2.73;;
6513;SDS011;3290;47.716;9.070;2023-05-07T13:38:22;2.60;;;2.40;;
6513;SDS011;3290;47.716;9.070;2023-05-07T13:40:47;4.10;;;2.53;;
6513;SDS011;3290;47.716;9.070;2023-05-07T13:43:12;4.00;;;2.40;;
6513;SDS011;3290;47.716;9.070;2023-05-07T13:45:38;5.70;;;2.57;;
6513;SDS011;3290;47.716;9.070;2023-05-07T13:48:03;5.50;;;2.83;;
6513;SDS011;3290;47.716;9.070;2023-05-07T13:50:29;3.07;;;2.70;;
6513;SDS011;3290;47.716;9.070;2023-05-07T13:52:55;3.43;;;2.60;;
6513;SDS011;3290;47.716;9.070;2023-05-07T13:55:21;3.97;;;2.30;;
6513;SDS011;3290;47.716;9.070;2023-05-07T13:57:53;1.97;;;1.87;;
6513;SDS011;3290;47.716;9.070;2023-05-07T14:00:20;3.57;;;2.00;;
6513;SDS011;3290;47.716;9.070;2023-05-07T14:02:46;3.70;;;2.47;;
6513;SDS011;3290;47.716;9.070;2023-05-07T14:05:11;3.30;;;1.73;;
6513;SDS011;3290;47.716;9.070;2023-05-07T14:07:38;5.10;;;1.73;;
6513;SDS011;3290;47.716;9.070;2023-05-07T14:10:04;6.40;;;2.70;;
6513;SDS011;3290;47.716;9.070;2023-05-07T14:12:30;4.33;;;2.30;;
6513;SDS011;3290;47.716;9.070;2023-05-07T14:14:56;3.73;;;2.20;;
6513;SDS011;3290;47.716;9.070;2023-05-07T14:17:21;3.53;;;2.00;;
6513;SDS011;3290;47.716;9.070;2023-05-07T14:19:48;6.03;;;2.70;;
6513;SDS011;3290;47.716;9.070;2023-05-07T14:22:13;4.90;;;2.43;;
6513;SDS011;3290;47.716;9.070;2023-05-07T14:24:40;7.50;;;2.40;;
6513;SDS011;3290;47.716;9.070;2023-05-07T14:27:05;6.10;;;2.30;;
6513;SDS011;3290;47.716;9.070;2023-05-07T14:29:31;4.83;;;2.80;;
6513;SDS011;3290;47.716;9.070;2023-05-07T14:31:57;4.07;;;2.80;;
6513;SDS011;3290;47.716;9.070;2023-05-07T14:34:22;4.27;;;2.40;;
6513;SDS011;3290;47.716;9.070;2023-05-07T14:36:48;6.90;;;2.80;;
6513;SDS011;3290;47.716;9.070;2023-05-07T14:39:13;6.10;;;2.77;;
6513;SDS011;3290;47.716;9.070;2023-05-07T14:41:38;7.27;;;2.50;;
6513;SDS011;3290;47.716;9.070;2023-05-07T14:44:04;6.57;;;2.83;;
6513;SDS011;3290;47.716;9.070;2023-05-07T14:46:29;5.30;;;2.60;;
6513;SDS011;3290;47.716;9.070;2023-05-07T14:48:55;5.67;;;2.67;;
6513;SDS011;3290;47.716;9.070;2023-05-07T14:51:21;3.47;;;2.97;;
6513;SDS011;3290;47.716;9.070;2023-05-07T14:53:47;2.67;;;2.03;;
6513;SDS011;3290;47.716;9.070;2023-05-07T14:56:12;2.73;;;2.03;;
6513;SDS011;3290;47.716;9.070;2023-05-07T14:58:37;4.27;;;1.73;;
6513;SDS011;3290;47.716;9.070;2023-05-07T15:01:03;2.60;;;1.80;;
6513;SDS011;3290;47.716;9.070;2023-05-07T15:03:29;3.10;;;1.70;;
6513;SDS011;3290;47.716;9.070;2023-05-07T15:05:54;3.13;;;1.50;;
6513;SDS011;3290;47.716;9.070;2023-05-07T15:08:20;1.90;;;1.70;;
6513;SDS011;3290;47.716;9.070;2023-05-07T15:10:45;5.70;;;1.60;;
6513;SDS011;3290;47.716;9.070;2023-05-07T15:13:11;4.30;;;2.00;;
6513;SDS011;3290;47.716;9.070;2023-05-07T15:15:38;2.13;;;1.40;;
6513;SDS011;3290;47.716;9.070;2023-05-07T15:18:04;4.77;;;1.80;;
6513;SDS011;3290;47.716;9.070;2023-05-07T15:20:29;2.60;;;1.67;;
6513;SDS011;3290;47.716;9.070;2023-05-07T15:22:55;3.47;;;2.33;;
6513;SDS011;3290;47.716;9.070;2023-05-07T15:25:21;2.10;;;1.90;;